Time;durP1;ratioP1;P1;durP2;ratioP2;P2;SDS_P1;SDS_P2;PMS_P1;PMS_P2;Temp;Humidity;BMP_temperature;BMP_pressure;BME280_temperature;BME280_humidity;BME280_pressure;Samples;Min_cycle;Max_cycle;Signal;HPM_P1;HPM_P2
2022/12/06 00:01:11;;;;;;;55.17;25.17;;;;;;;1.09;100.00;100165.88;4198525;28;20237;-63
2022/12/06 00:03:40;;;;;;;50.73;24.57;;;;;;;1.16;100.00;100166.38;4201277;28;20334;-63
2022/12/06 00:06:11;;;;;;;55.77;24.27;;;;;;;1.14;100.00;100155.97;4194256;28;20244;-65
2022/12/06 00:08:38;;;;;;;56.93;24.53;;;;;;;1.06;100.00;100147.72;4197418;28;20469;-65
2022/12/06 00:11:26;;;;;;;54.77;25.23;;;;;;;0.92;100.00;100147.72;4192418;28;20846;-65
2022/12/06 00:13:55;;;;;;;58.97;25.90;;;;;;;0.99;100.00;100149.88;4203674;28;20237;-64
2022/12/06 00:16:23;;;;;;;58.03;26.93;;;;;;;0.92;100.00;100148.53;4197883;28;20273;-61
2022/12/06 00:18:49;;;;;;;52.53;25.10;;;;;;;1.00;100.00;100145.47;4192273;28;20689;-64
2022/12/06 00:21:27;;;;;;;58.93;26.03;;;;;;;0.96;100.00;100143.94;4196292;28;20495;-64
2022/12/06 00:24:05;;;;;;;64.50;26.77;;;;;;;0.90;100.00;100149.56;4194523;28;20302;-66
2022/12/06 00:26:34;;;;;;;60.70;27.30;;;;;;;0.97;100.00;100143.88;4193368;28;20252;-65
2022/12/06 00:29:02;;;;;;;55.83;26.33;;;;;;;0.89;100.00;100140.88;4199718;28;23039;-66
2022/12/06 00:31:30;;;;;;;57.43;25.77;;;;;;;0.95;100.00;100137.03;4197003;28;20233;-63
2022/12/06 00:33:56;;;;;;;56.17;26.10;;;;;;;0.99;100.00;100139.38;4191280;28;20233;-64
2022/12/06 00:36:25;;;;;;;58.30;25.57;;;;;;;1.04;100.00;100136.50;4193013;28;22954;-65
2022/12/06 00:38:52;;;;;;;60.30;26.33;;;;;;;0.99;100.00;100136.78;4190198;28;20306;-67
2022/12/06 00:41:21;;;;;;;66.07;27.33;;;;;;;0.90;100.00;100133.84;4193067;28;20399;-69
2022/12/06 00:43:48;;;;;;;61.50;25.80;;;;;;;0.93;100.00;100142.34;4188569;28;20673;-66
2022/12/06 00:46:17;;;;;;;57.03;27.87;;;;;;;0.90;100.00;100128.63;4190672;28;20232;-66
2022/12/06 00:48:44;;;;;;;62.07;27.97;;;;;;;0.81;100.00;100125.59;4195247;28;20672;-65
2022/12/06 00:51:12;;;;;;;62.77;28.00;;;;;;;0.73;100.00;100122.59;4174545;28;20241;-65
2022/12/06 00:53:38;;;;;;;61.10;28.10;;;;;;;0.69;100.00;100115.84;4192363;28;25535;-65
2022/12/06 00:56:05;;;;;;;62.67;28.87;;;;;;;0.67;100.00;100114.25;4181194;28;20238;-65
2022/12/06 00:58:32;;;;;;;70.10;28.30;;;;;;;0.74;100.00;100113.78;4184648;28;20282;-64
2022/12/06 01:01:20;;;;;;;60.20;27.67;;;;;;;0.83;100.00;100113.25;4189728;28;21203;-65
2022/12/06 01:03:50;;;;;;;65.90;26.83;;;;;;;0.81;100.00;100109.03;4191294;28;20237;-64
2022/12/06 01:06:18;;;;;;;64.33;28.67;;;;;;;0.91;100.00;100104.09;4188355;28;20256;-64
2022/12/06 01:08:45;;;;;;;66.90;29.00;;;;;;;0.92;100.00;100105.78;4173425;28;20233;-67
2022/12/06 01:11:12;;;;;;;63.90;28.87;;;;;;;0.94;100.00;100104.75;4184880;28;20263;-64
2022/12/06 01:13:40;;;;;;;66.27;29.33;;;;;;;0.96;100.00;100102.91;4188490;28;20341;-64
2022/12/06 01:16:09;;;;;;;59.20;27.17;;;;;;;0.78;100.00;100098.75;4189124;28;20283;-64
2022/12/06 01:18:36;;;;;;;61.30;27.67;;;;;;;0.86;100.00;100103.53;4178754;28;20343;-63
2022/12/06 01:21:04;;;;;;;63.67;28.67;;;;;;;0.88;100.00;100094.66;4189617;28;20230;-63
2022/12/06 01:23:31;;;;;;;67.90;29.60;;;;;;;0.67;100.00;100088.91;4193874;28;20236;-64
2022/12/06 01:25:57;;;;;;;71.27;29.57;;;;;;;0.64;100.00;100078.63;4190031;28;22434;-63
2022/12/06 01:28:24;;;;;;;67.40;29.70;;;;;;;0.66;100.00;100074.13;4192551;28;20252;-64
2022/12/06 01:30:50;;;;;;;63.47;29.13;;;;;;;0.73;100.00;100075.47;4195557;28;20241;-65
2022/12/06 01:33:17;;;;;;;63.83;29.17;;;;;;;0.73;100.00;100072.84;4192424;28;20795;-68
2022/12/06 01:35:44;;;;;;;69.37;30.40;;;;;;;0.78;100.00;100078.63;4186727;28;20355;-63
2022/12/06 01:38:11;;;;;;;67.77;29.43;;;;;;;0.84;100.00;100072.19;4195092;28;20322;-63
2022/12/06 01:40:47;;;;;;;63.70;28.83;;;;;;;0.82;100.00;100080.16;4192390;28;20710;-64
2022/12/06 01:43:34;;;;;;;75.70;29.97;;;;;;;0.83;100.00;100071.34;4179355;28;20306;-64
2022/12/06 01:46:24;;;;;;;69.43;29.60;;;;;;;0.78;100.00;100073.41;4203907;28;20327;-64
2022/12/06 01:48:55;;;;;;;73.50;30.20;;;;;;;0.63;100.00;100063.81;4192172;28;20321;-64
2022/12/06 01:51:22;;;;;;;73.90;30.40;;;;;;;0.69;100.00;100066.09;4195517;28;20706;-63
2022/12/06 01:53:51;;;;;;;69.63;29.33;;;;;;;0.55;100.00;100059.06;4192474;28;22905;-67
2022/12/06 01:56:18;;;;;;;67.70;30.37;;;;;;;0.55;100.00;100050.38;4194588;28;20642;-63
2022/12/06 01:58:45;;;;;;;78.70;31.30;;;;;;;0.72;100.00;100052.81;4205443;28;20436;-64
2022/12/06 02:01:12;;;;;;;68.80;30.90;;;;;;;0.74;100.00;100060.59;4186579;28;21333;-66
2022/12/06 02:03:39;;;;;;;73.10;30.53;;;;;;;0.80;100.00;100058.44;4189033;28;20233;-66
2022/12/06 02:06:07;;;;;;;69.17;30.70;;;;;;;0.66;100.00;100047.94;4181126;28;20244;-66
2022/12/06 02:08:35;;;;;;;74.07;30.00;;;;;;;0.71;100.00;100051.13;4181479;28;20319;-62
2022/12/06 02:11:02;;;;;;;65.83;29.60;;;;;;;0.89;100.00;100050.94;4184234;28;20321;-66
2022/12/06 02:13:31;;;;;;;65.07;29.03;;;;;;;0.94;100.00;100051.53;4183277;28;21933;-65
2022/12/06 02:16:05;;;;;;;70.20;29.53;;;;;;;0.95;100.00;100047.97;4203274;28;20229;-66
2022/12/06 02:18:49;;;;;;;67.57;28.63;;;;;;;0.83;100.00;100044.31;4189703;28;21277;-63
2022/12/06 02:21:39;;;;;;;68.50;29.73;;;;;;;0.81;100.00;100033.09;4183182;28;20345;-66
2022/12/06 02:24:38;;;;;;;70.97;29.50;;;;;;;0.78;100.00;100041.13;4192706;28;20241;-65
2022/12/06 02:27:17;;;;;;;67.00;28.70;;;;;;;0.69;100.00;100032.06;4197640;28;22855;-63
2022/12/06 02:30:09;;;;;;;69.37;29.93;;;;;;;0.79;100.00;100027.94;4205773;28;20719;-64
2022/12/06 02:32:45;;;;;;;68.03;28.77;;;;;;;0.82;100.00;100021.69;4180347;28;20221;-64
2022/12/06 02:35:30;;;;;;;69.80;30.00;;;;;;;0.84;100.00;100023.28;4192152;28;23857;-66
2022/12/06 02:38:12;;;;;;;67.10;30.70;;;;;;;0.75;100.00;100026.44;4184347;28;20237;-63
2022/12/06 02:40:44;;;;;;;69.37;29.70;;;;;;;0.88;100.00;100026.53;4188426;28;20582;-66
2022/12/06 02:43:15;;;;;;;68.27;29.53;;;;;;;0.98;100.00;100025.06;4188216;28;21964;-64
2022/12/06 02:45:46;;;;;;;74.73;30.43;;;;;;;1.10;100.00;100020.84;4190315;28;20286;-66
2022/12/06 02:48:13;;;;;;;66.17;28.90;;;;;;;1.02;100.00;100017.84;4180818;28;23774;-67
2022/12/06 02:50:45;;;;;;;73.03;30.93;;;;;;;0.92;100.00;100011.50;4186500;28;20241;-66
2022/12/06 02:53:18;;;;;;;71.13;29.87;;;;;;;0.99;100.00;100002.31;4193789;28;23639;-66
2022/12/06 02:55:45;;;;;;;69.40;29.33;;;;;;;0.95;100.00;100000.81;4189174;28;20335;-65
2022/12/06 02:58:11;;;;;;;70.43;30.00;;;;;;;1.07;100.00;99999.22;4180396;28;23641;-68
2022/12/06 03:00:41;;;;;;;61.20;28.43;;;;;;;1.03;100.00;99995.94;4190856;28;20300;-66
2022/12/06 03:03:35;;;;;;;64.47;28.90;;;;;;;0.93;100.00;99992.22;4174319;28;20238;-64
2022/12/06 03:06:02;;;;;;;75.93;29.80;;;;;;;0.89;100.00;99988.09;4211218;28;20244;-62
2022/12/06 03:08:36;;;;;;;81.13;29.40;;;;;;;0.90;100.00;99988.00;4192009;28;23525;-63
2022/12/06 03:11:03;;;;;;;64.90;27.83;;;;;;;0.83;100.00;99984.91;4181921;28;20236;-63
2022/12/06 03:13:38;;;;;;;65.33;30.53;;;;;;;0.88;100.00;99981.19;4193138;28;20252;-62
2022/12/06 03:16:14;;;;;;;65.40;27.73;;;;;;;0.91;100.00;99988.84;4187132;28;20296;-64
2022/12/06 03:18:49;;;;;;;66.67;28.40;;;;;;;0.91;100.00;99994.06;4178330;28;20247;-65
2022/12/06 03:21:27;;;;;;;66.10;29.37;;;;;;;0.90;100.00;99993.25;4187895;28;20232;-63
2022/12/06 03:23:54;;;;;;;67.47;28.40;;;;;;;0.86;100.00;99983.03;4193181;28;20252;-64
2022/12/06 03:26:27;;;;;;;71.33;29.70;;;;;;;0.93;100.00;99986.97;4188027;28;20414;-63
2022/12/06 03:28:55;;;;;;;73.50;29.97;;;;;;;0.99;100.00;99981.38;4186387;28;20252;-64
2022/12/06 03:31:24;;;;;;;68.77;29.43;;;;;;;0.99;100.00;99978.75;4183193;28;20241;-64
2022/12/06 03:34:00;;;;;;;74.90;28.93;;;;;;;0.88;100.00;99978.56;4199485;28;20229;-63
2022/12/06 03:36:27;;;;;;;72.17;29.43;;;;;;;0.93;100.00;99969.47;4188040;28;22441;-63
2022/12/06 03:38:57;;;;;;;71.10;29.47;;;;;;;1.00;100.00;99978.63;4198746;28;20332;-63
2022/12/06 03:41:27;;;;;;;70.90;29.43;;;;;;;1.00;100.00;99980.41;4206395;28;20307;-63
2022/12/06 03:43:54;;;;;;;73.83;28.43;;;;;;;0.97;100.00;99983.22;4204587;28;22028;-64
2022/12/06 03:46:26;;;;;;;73.37;29.80;;;;;;;0.93;100.00;99976.50;4188164;28;22512;-66
2022/12/06 03:48:58;;;;;;;66.87;28.13;;;;;;;1.06;100.00;99974.81;4188003;28;20281;-64
2022/12/06 03:51:28;;;;;;;70.73;29.20;;;;;;;0.89;100.00;99970.63;4185969;28;20313;-65
2022/12/06 03:53:58;;;;;;;69.60;28.73;;;;;;;0.89;100.00;99969.75;4204847;28;20331;-66
2022/12/06 03:56:24;;;;;;;71.10;28.73;;;;;;;0.89;100.00;99973.22;4190430;28;20281;-66
2022/12/06 03:58:51;;;;;;;68.80;29.30;;;;;;;0.91;100.00;99970.50;4194606;28;22967;-63
2022/12/06 04:01:18;;;;;;;74.70;28.80;;;;;;;1.11;100.00;99975.34;4209767;28;22377;-65
2022/12/06 04:03:44;;;;;;;70.50;29.07;;;;;;;1.09;100.00;99958.88;4211020;28;20225;-64
2022/12/06 04:06:11;;;;;;;77.47;28.93;;;;;;;0.99;100.00;99956.00;4198161;28;20249;-63
2022/12/06 04:08:38;;;;;;;75.07;28.20;;;;;;;1.01;100.00;99946.25;4199723;28;20229;-66
2022/12/06 04:11:04;;;;;;;73.03;29.43;;;;;;;1.11;100.00;99958.78;4195859;28;21310;-64
2022/12/06 04:13:31;;;;;;;71.53;28.67;;;;;;;1.17;100.00;99950.53;4188196;28;20340;-65
2022/12/06 04:15:59;;;;;;;64.17;28.23;;;;;;;1.23;100.00;99958.84;4193372;28;20247;-66
2022/12/06 04:18:26;;;;;;;64.63;26.90;;;;;;;1.23;100.00;99948.34;4194253;28;21315;-64
2022/12/06 04:23:50;;;;;;;69.23;28.53;;;;;;;1.13;100.00;99947.28;4200620;28;20229;-64
2022/12/06 04:26:19;;;;;;;70.00;27.77;;;;;;;1.10;100.00;99950.09;4200514;28;20241;-66
2022/12/06 04:39:48;;;;;;;68.47;27.40;;;;;;;1.07;100.00;99939.78;4193257;28;25559;-67
2022/12/06 04:45:00;;;;;;;68.87;28.50;;;;;;;0.99;100.00;99931.59;4199488;28;20245;-65
2022/12/06 04:47:26;;;;;;;66.53;27.23;;;;;;;0.96;100.00;99934.38;4195717;28;21784;-65
2022/12/06 04:49:53;;;;;;;67.80;27.43;;;;;;;0.97;100.00;99930.84;4198979;28;20572;-65
2022/12/06 04:52:20;;;;;;;65.33;27.27;;;;;;;1.00;100.00;99928.00;4196752;28;20243;-66
2022/12/06 04:54:46;;;;;;;67.50;27.23;;;;;;;0.85;100.00;99927.22;4198105;28;20229;-63
2022/12/06 04:57:15;;;;;;;77.40;29.30;;;;;;;0.91;100.00;99925.97;4197706;28;21893;-67
2022/12/06 04:59:43;;;;;;;71.80;28.10;;;;;;;0.94;100.00;99926.63;4194684;28;20242;-65
2022/12/06 05:02:12;;;;;;;71.57;28.10;;;;;;;1.00;100.00;99926.22;4194723;28;20289;-66
2022/12/06 05:04:38;;;;;;;74.17;28.13;;;;;;;1.04;100.00;99925.09;4183216;28;20245;-63
2022/12/06 05:07:05;;;;;;;72.90;28.50;;;;;;;1.07;100.00;99910.97;4199461;28;20268;-63
2022/12/06 05:09:32;;;;;;;76.67;28.53;;;;;;;0.98;100.00;99914.16;4199165;28;22862;-64
2022/12/06 05:11:59;;;;;;;73.70;28.83;;;;;;;0.97;100.00;99909.88;4197668;28;20323;-65
2022/12/06 05:14:25;;;;;;;73.77;26.97;;;;;;;0.80;100.00;99906.53;4197633;28;20348;-67
2022/12/06 05:16:52;;;;;;;82.27;29.53;;;;;;;0.78;100.00;99905.78;4197437;28;20339;-65
2022/12/06 05:19:18;;;;;;;73.23;29.07;;;;;;;0.88;100.00;99906.06;4192927;28;20379;-64
2022/12/06 05:21:46;;;;;;;77.50;28.87;;;;;;;0.86;100.00;99902.69;4201589;28;20233;-62
2022/12/06 05:24:13;;;;;;;68.20;27.43;;;;;;;0.90;100.00;99898.94;4194427;28;20225;-67
2022/12/06 05:26:40;;;;;;;81.70;28.93;;;;;;;0.76;100.00;99897.19;4195664;28;20247;-66
2022/12/06 05:29:06;;;;;;;72.87;27.93;;;;;;;0.74;100.00;99888.56;4196780;28;20414;-64
2022/12/06 05:31:34;;;;;;;77.67;29.70;;;;;;;0.74;100.00;99880.72;4200746;28;20233;-65
2022/12/06 05:34:01;;;;;;;81.57;29.53;;;;;;;0.75;100.00;99879.81;4194259;28;20676;-66
2022/12/06 05:36:27;;;;;;;75.80;27.63;;;;;;;0.75;100.00;99876.31;4196573;28;21247;-65
2022/12/06 05:38:55;;;;;;;77.30;29.70;;;;;;;0.71;100.00;99882.72;4195184;28;21158;-65
2022/12/06 05:41:22;;;;;;;85.23;29.87;;;;;;;0.67;100.00;99879.44;4197172;28;20308;-67
2022/12/06 05:43:49;;;;;;;83.53;28.33;;;;;;;0.60;100.00;99871.09;4189841;28;22922;-63
2022/12/06 05:46:16;;;;;;;72.30;28.20;;;;;;;0.71;100.00;99877.47;4205049;28;22766;-64
2022/12/06 05:48:43;;;;;;;86.47;28.80;;;;;;;0.73;100.00;99875.59;4203981;28;23467;-65
2022/12/06 05:51:10;;;;;;;77.83;28.33;;;;;;;0.75;100.00;99869.31;4193050;28;21617;-66
2022/12/06 05:53:36;;;;;;;76.60;28.27;;;;;;;0.66;100.00;99869.91;4197561;28;20556;-66
2022/12/06 05:56:09;;;;;;;82.97;28.67;;;;;;;0.71;100.00;99862.59;4209348;28;20248;-64
2022/12/06 05:58:35;;;;;;;68.90;27.97;;;;;;;0.69;100.00;99864.47;4237695;28;22464;-66
2022/12/06 06:01:03;;;;;;;70.50;27.37;;;;;;;0.75;100.00;99858.00;4230737;28;20244;-67
2022/12/06 06:03:30;;;;;;;74.77;28.50;;;;;;;0.72;100.00;99855.56;4237360;28;20245;-65
2022/12/06 06:05:58;;;;;;;74.60;29.20;;;;;;;0.68;100.00;99851.47;4208108;28;20483;-65
2022/12/06 06:08:25;;;;;;;66.87;25.70;;;;;;;0.61;100.00;99853.66;4249046;28;20334;-62
2022/12/06 06:10:52;;;;;;;74.67;26.53;;;;;;;0.60;100.00;99858.00;4244892;28;20893;-65
2022/12/06 06:13:19;;;;;;;68.50;26.33;;;;;;;0.58;100.00;99861.66;4238037;28;22377;-63
2022/12/06 06:15:47;;;;;;;68.13;25.40;;;;;;;0.73;100.00;99868.59;4241552;28;23084;-66
2022/12/06 06:18:15;;;;;;;68.97;24.90;;;;;;;0.79;100.00;99869.97;4247684;28;20227;-67
2022/12/06 06:20:47;;;;;;;63.83;24.43;;;;;;;0.86;100.00;99870.41;4233870;28;20378;-65
2022/12/06 06:23:14;;;;;;;72.27;26.77;;;;;;;0.92;100.00;99878.72;4225551;28;20725;-67
2022/12/06 06:25:43;;;;;;;66.87;24.77;;;;;;;0.78;100.00;99876.16;4217593;28;25736;-68
2022/12/06 06:28:09;;;;;;;61.13;23.93;;;;;;;1.05;100.00;99876.16;4212776;28;20266;-63
2022/12/06 06:30:36;;;;;;;61.63;23.73;;;;;;;1.05;100.00;99882.25;4235989;28;20412;-66
2022/12/06 06:33:03;;;;;;;51.43;23.03;;;;;;;1.20;100.00;99875.19;4233397;28;20234;-71
2022/12/06 06:35:29;;;;;;;54.43;22.47;;;;;;;1.29;100.00;99875.50;4240653;28;20246;-65
2022/12/06 06:37:56;;;;;;;61.90;23.27;;;;;;;1.30;100.00;99870.19;4224739;28;21116;-66
2022/12/06 06:40:22;;;;;;;56.47;22.67;;;;;;;1.12;100.00;99868.75;4227786;28;21709;-66
2022/12/06 06:42:49;;;;;;;52.50;22.43;;;;;;;1.17;100.00;99864.03;4225485;28;20227;-66
2022/12/06 06:45:16;;;;;;;51.00;22.20;;;;;;;1.12;100.00;99866.13;4212873;28;20554;-65
2022/12/06 06:47:43;;;;;;;53.63;21.53;;;;;;;1.14;100.00;99865.09;4224113;28;22239;-64
2022/12/06 06:50:10;;;;;;;54.13;22.87;;;;;;;1.16;100.00;99863.22;4223783;28;21279;-65
2022/12/06 06:52:36;;;;;;;54.23;22.30;;;;;;;1.30;100.00;99871.97;4222994;28;20241;-65
2022/12/06 06:55:03;;;;;;;54.50;22.50;;;;;;;1.32;100.00;99864.84;4202379;28;22655;-65
2022/12/06 06:57:30;;;;;;;51.00;22.47;;;;;;;1.15;100.00;99861.53;4216968;28;20244;-68
2022/12/06 06:59:56;;;;;;;48.07;22.47;;;;;;;1.01;100.00;99859.81;4227100;28;20229;-69
2022/12/06 07:02:44;;;;;;;48.93;21.43;;;;;;;1.02;100.00;99865.88;4516251;28;21412;-65
2022/12/06 07:05:17;;;;;;;53.63;21.20;;;;;;;1.13;100.00;99858.19;4548709;28;20239;-68
2022/12/06 07:07:45;;;;;;;54.03;21.40;;;;;;;1.01;100.00;99865.06;4355815;28;20400;-66
2022/12/06 07:10:12;;;;;;;48.67;21.37;;;;;;;1.09;100.00;99855.84;4245011;28;22900;-67
2022/12/06 07:12:39;;;;;;;50.27;22.30;;;;;;;0.93;100.00;99853.38;4223028;28;20346;-65
2022/12/06 07:15:06;;;;;;;62.97;23.00;;;;;;;0.94;100.00;99855.91;4231258;28;20239;-69
2022/12/06 07:17:34;;;;;;;49.93;22.40;;;;;;;1.05;100.00;99848.19;4216193;28;20227;-64
2022/12/06 07:20:00;;;;;;;55.43;21.83;;;;;;;1.02;100.00;99850.16;4199098;28;22143;-66
2022/12/06 07:22:29;;;;;;;54.93;23.37;;;;;;;0.91;100.00;99848.22;4221752;28;20233;-69
2022/12/06 07:24:55;;;;;;;54.53;22.37;;;;;;;1.04;100.00;99848.28;4205621;28;20336;-66
2022/12/06 07:27:22;;;;;;;54.87;21.13;;;;;;;1.03;100.00;99841.34;4215021;28;20235;-66
2022/12/06 07:29:49;;;;;;;55.10;21.93;;;;;;;0.99;100.00;99842.50;4208048;28;20688;-67
2022/12/06 07:32:15;;;;;;;51.53;21.47;;;;;;;0.94;100.00;99850.66;4208846;28;20289;-64
2022/12/06 07:34:42;;;;;;;52.00;21.73;;;;;;;0.81;100.00;99849.75;4198595;28;20512;-64
2022/12/06 07:37:08;;;;;;;48.10;20.57;;;;;;;0.75;100.00;99848.38;4214079;28;20231;-67
2022/12/06 07:39:35;;;;;;;47.20;21.50;;;;;;;0.84;100.00;99842.56;4218099;28;22162;-71
2022/12/06 07:45:04;;;;;;;53.77;22.43;;;;;;;0.79;100.00;99834.13;4225554;28;20426;-69
2022/12/06 07:47:32;;;;;;;49.17;21.03;;;;;;;0.75;100.00;99819.56;4218999;28;20228;-65
2022/12/06 07:50:00;;;;;;;64.37;21.00;;;;;;;0.74;100.00;99820.50;4229114;28;20618;-65
2022/12/06 07:52:32;;;;;;;56.97;20.33;;;;;;;0.78;100.00;99814.13;4247312;28;20235;-66
2022/12/06 07:54:59;;;;;;;49.37;21.33;;;;;;;0.72;100.00;99811.88;4245905;28;25753;-64
2022/12/06 07:57:26;;;;;;;48.30;19.73;;;;;;;0.69;100.00;99812.09;4232004;28;21816;-65
2022/12/06 07:59:54;;;;;;;45.40;19.50;;;;;;;0.72;100.00;99817.13;4228421;28;20293;-67
2022/12/06 08:02:22;;;;;;;49.23;18.83;;;;;;;0.75;100.00;99821.31;4223100;28;25624;-66
2022/12/06 08:04:49;;;;;;;62.87;21.10;;;;;;;0.82;100.00;99822.66;4214594;28;20449;-66
2022/12/06 08:07:16;;;;;;;48.10;19.33;;;;;;;0.76;100.00;99810.75;4217668;28;20295;-66
2022/12/06 08:09:43;;;;;;;51.50;20.20;;;;;;;0.85;100.00;99819.81;4250596;28;20540;-65
2022/12/06 08:12:10;;;;;;;51.00;20.57;;;;;;;0.96;100.00;99819.97;4230711;28;20451;-66
2022/12/06 08:14:36;;;;;;;55.43;20.67;;;;;;;0.98;100.00;99828.59;4228952;28;21621;-67
2022/12/06 08:17:04;;;;;;;46.67;19.93;;;;;;;0.98;100.00;99823.34;4214842;28;20235;-69
2022/12/06 08:19:31;;;;;;;57.43;22.20;;;;;;;0.93;100.00;99819.31;4240771;28;20381;-66
2022/12/06 08:21:57;;;;;;;63.43;21.50;;;;;;;1.08;100.00;99823.59;4231989;28;20238;-64
2022/12/06 08:24:24;;;;;;;54.50;22.63;;;;;;;1.06;100.00;99825.47;4263028;28;20230;-68
2022/12/06 08:26:52;;;;;;;56.70;22.60;;;;;;;1.03;100.00;99809.91;4219842;28;20410;-69
2022/12/06 08:29:18;;;;;;;54.20;22.70;;;;;;;1.00;100.00;99813.56;4228649;28;21589;-67
2022/12/06 08:31:45;;;;;;;67.97;23.43;;;;;;;0.99;100.00;99818.94;4212920;28;23619;-70
2022/12/06 08:34:14;;;;;;;61.30;24.13;;;;;;;0.88;100.00;99814.38;4243282;28;20344;-70
2022/12/06 08:36:41;;;;;;;60.83;24.50;;;;;;;0.98;100.00;99819.84;4232443;28;20276;-67
2022/12/06 08:39:10;;;;;;;53.63;24.03;;;;;;;1.14;100.00;99823.16;4222902;28;20314;-67
2022/12/06 08:41:57;;;;;;;65.20;25.50;;;;;;;1.20;100.00;99827.19;4254150;28;20273;-67
2022/12/06 08:44:25;;;;;;;57.63;24.53;;;;;;;1.27;100.00;99818.81;4268480;28;20229;-70
2022/12/06 08:46:53;;;;;;;68.10;25.37;;;;;;;1.22;100.00;99815.66;4219373;28;20426;-68
2022/12/06 08:49:20;;;;;;;64.97;26.17;;;;;;;1.27;100.00;99813.56;4224470;28;20250;-68
2022/12/06 08:51:47;;;;;;;66.03;25.00;;;;;;;1.27;100.00;99815.34;4248509;28;20695;-70
2022/12/06 08:54:16;;;;;;;61.07;25.07;;;;;;;1.37;100.00;99821.66;4244098;28;20405;-67
2022/12/06 08:56:43;;;;;;;58.87;25.57;;;;;;;1.15;100.00;99819.63;4227584;28;20241;-69
2022/12/06 08:59:11;;;;;;;54.13;23.90;;;;;;;1.34;100.00;99814.00;4216763;28;25754;-67
2022/12/06 09:01:37;;;;;;;55.13;23.20;;;;;;;1.35;100.00;99815.66;4245398;28;20672;-67
2022/12/06 09:04:06;;;;;;;66.70;25.80;;;;;;;1.20;100.00;99806.22;4231723;28;21064;-69
2022/12/06 09:06:35;;;;;;;63.90;25.87;;;;;;;1.10;100.00;99803.38;4223930;28;20231;-68
2022/12/06 09:09:02;;;;;;;60.73;24.33;;;;;;;1.17;100.00;99795.91;4246381;28;20383;-70
2022/12/06 09:11:29;;;;;;;65.40;25.03;;;;;;;1.09;100.00;99792.97;4245114;28;20232;-67
2022/12/06 09:13:56;;;;;;;61.87;25.90;;;;;;;1.16;100.00;99789.00;4215590;28;23121;-70
2022/12/06 09:16:23;;;;;;;60.07;25.37;;;;;;;1.04;100.00;99791.50;4212469;28;20614;-68
2022/12/06 09:18:50;;;;;;;63.17;25.40;;;;;;;1.21;100.00;99786.91;4230643;28;20266;-67
2022/12/06 09:21:19;;;;;;;60.60;24.43;;;;;;;1.22;100.00;99786.00;4232893;28;20239;-68
2022/12/06 09:23:46;;;;;;;56.00;24.23;;;;;;;1.10;100.00;99779.78;4218107;28;21680;-68
2022/12/06 09:26:13;;;;;;;64.13;25.83;;;;;;;1.18;100.00;99771.41;4210143;28;20240;-71
2022/12/06 09:28:41;;;;;;;63.47;25.17;;;;;;;1.11;100.00;99780.63;4221901;28;20587;-68
2022/12/06 09:31:08;;;;;;;69.27;26.10;;;;;;;1.12;100.00;99783.13;4241536;28;22212;-69
2022/12/06 09:33:37;;;;;;;63.43;25.43;;;;;;;1.23;100.00;99780.63;4217194;28;20275;-71
2022/12/06 09:36:12;;;;;;;64.87;26.30;;;;;;;1.32;100.00;99783.59;4222847;28;20280;-70
2022/12/06 09:38:39;;;;;;;59.37;26.83;;;;;;;1.40;100.00;99773.44;4226229;28;20237;-72
2022/12/06 09:41:11;;;;;;;60.23;25.93;;;;;;;1.45;100.00;99766.09;4229550;28;20364;-69
2022/12/06 09:43:49;;;;;;;65.50;25.57;;;;;;;1.32;100.00;99762.63;4220023;28;20659;-64
2022/12/06 09:46:32;;;;;;;65.10;25.27;;;;;;;1.38;100.00;99756.97;4224144;28;20236;-65
2022/12/06 09:49:28;;;;;;;65.73;26.93;;;;;;;1.46;100.00;99759.91;4209103;28;20713;-69
2022/12/06 09:52:07;;;;;;;65.63;25.90;;;;;;;1.53;100.00;99750.69;4215892;28;20264;-67
2022/12/06 09:54:53;;;;;;;64.93;24.00;;;;;;;1.49;100.00;99749.22;4216685;28;21800;-66
2022/12/06 09:57:38;;;;;;;68.60;25.07;;;;;;;1.53;100.00;99755.94;4221636;28;20319;-66
2022/12/06 10:00:06;;;;;;;68.67;25.13;;;;;;;1.39;100.00;99748.16;4213771;28;21624;-67
2022/12/06 10:02:43;;;;;;;61.90;25.10;;;;;;;1.36;100.00;99748.34;4224785;28;20250;-70
2022/12/06 10:05:46;;;;;;;56.33;24.73;;;;;;;1.44;100.00;99743.44;4213096;28;20237;-65
2022/12/06 10:08:45;;;;;;;61.90;23.90;;;;;;;1.30;100.00;99738.31;4243206;28;20234;-67
2022/12/06 10:11:34;;;;;;;67.00;25.53;;;;;;;1.39;100.00;99735.06;4237965;28;23015;-69
2022/12/06 10:14:14;;;;;;;58.07;25.10;;;;;;;1.63;100.00;99728.13;4237235;28;20299;-66
2022/12/06 10:16:41;;;;;;;66.90;25.60;;;;;;;1.55;100.00;99717.34;4229318;28;22056;-65
2022/12/06 10:19:20;;;;;;;61.07;24.37;;;;;;;1.42;100.00;99703.38;4237009;28;20834;-72
2022/12/06 10:22:01;;;;;;;74.03;26.53;;;;;;;1.53;100.00;99695.63;4240846;28;20327;-64
2022/12/06 10:24:54;;;;;;;78.50;29.17;;;;;;;1.52;100.00;99699.19;4226794;28;21418;-64
2022/12/06 10:27:47;;;;;;;81.03;27.47;;;;;;;1.45;100.00;99693.53;4220085;28;20255;-68
2022/12/06 10:30:15;;;;;;;74.67;27.43;;;;;;;1.50;100.00;99688.00;4224903;28;20265;-67
2022/12/06 10:32:53;;;;;;;82.40;29.50;;;;;;;1.49;100.00;99691.53;4222576;28;21165;-66
2022/12/06 10:35:35;;;;;;;79.23;29.40;;;;;;;1.37;100.00;99682.72;4212749;28;20519;-69
2022/12/06 10:38:18;;;;;;;76.63;29.63;;;;;;;1.38;100.00;99683.56;4200703;28;20325;-72
2022/12/06 10:40:50;;;;;;;71.97;29.20;;;;;;;1.61;100.00;99689.84;4218780;28;20935;-65
2022/12/06 10:43:47;;;;;;;68.53;28.93;;;;;;;1.71;100.00;99684.78;4212973;28;20676;-67
2022/12/06 10:49:57;;;;;;;69.53;27.80;;;;;;;1.74;100.00;99679.38;4215619;28;20414;-65
2022/12/06 10:52:34;;;;;;;76.43;30.10;;;;;;;1.67;100.00;99665.84;4231846;28;20374;-65
2022/12/06 10:55:00;;;;;;;76.20;30.20;;;;;;;1.76;100.00;99661.72;4206582;28;20241;-66
2022/12/06 10:58:03;;;;;;;85.57;31.60;;;;;;;1.77;100.00;99652.91;4279449;28;20396;-67
2022/12/06 11:00:37;;;;;;;78.33;30.43;;;;;;;1.75;100.00;99649.53;4361089;28;20315;-69
2022/12/06 11:03:28;;;;;;;74.10;30.20;;;;;;;1.88;100.00;99642.50;4375189;28;20540;-65
2022/12/06 11:06:01;;;;;;;74.37;30.63;;;;;;;2.01;100.00;99645.91;4346707;28;20239;-67
2022/12/06 11:08:38;;;;;;;73.70;29.93;;;;;;;2.15;100.00;99646.72;4450319;28;20242;-68
2022/12/06 11:11:14;;;;;;;72.00;30.30;;;;;;;2.23;100.00;99645.22;4478387;28;20307;-67
2022/12/06 11:13:55;;;;;;;86.53;32.83;;;;;;;2.21;100.00;99647.09;4337627;28;20798;-66
2022/12/06 11:16:46;;;;;;;86.27;32.97;;;;;;;2.15;100.00;99641.47;4558859;28;20750;-68
2022/12/06 11:19:32;;;;;;;74.87;31.60;;;;;;;2.09;100.00;99650.63;4548097;28;20286;-67
2022/12/06 11:22:19;;;;;;;84.00;32.67;;;;;;;1.93;100.00;99642.16;4523443;28;20234;-67
2022/12/06 11:25:02;;;;;;;74.27;30.97;;;;;;;1.76;100.00;99640.75;4599245;23;20241;-65
2022/12/06 11:27:40;;;;;;;77.73;30.33;;;;;;;1.64;100.00;99638.03;4938042;28;20232;-65
2022/12/06 11:30:16;;;;;;;83.70;31.33;;;;;;;1.51;100.00;99631.97;4942733;23;20310;-66
2022/12/06 11:32:48;;;;;;;80.73;29.70;;;;;;;1.50;100.00;99626.81;4966595;28;20302;-68
2022/12/06 11:35:19;;;;;;;82.90;30.63;;;;;;;1.50;100.00;99635.56;4967014;28;20215;-68
2022/12/06 11:37:46;;;;;;;85.37;31.30;;;;;;;1.39;100.00;99635.44;4948847;28;20289;-65
2022/12/06 11:40:21;;;;;;;87.60;33.00;;;;;;;1.42;100.00;99630.00;4968538;28;20710;-64
2022/12/06 11:42:48;;;;;;;93.40;31.47;;;;;;;1.52;100.00;99627.56;4978009;28;20682;-67
2022/12/06 11:45:20;;;;;;;86.00;31.83;;;;;;;1.62;100.00;99618.13;4989191;28;20229;-67
2022/12/06 11:47:47;;;;;;;90.63;32.57;;;;;;;1.67;100.00;99616.84;4970003;28;20234;-66
2022/12/06 11:50:17;;;;;;;83.97;31.83;;;;;;;1.72;100.00;99613.06;4968314;28;20228;-67
2022/12/06 11:52:54;;;;;;;88.47;32.37;;;;;;;1.55;100.00;99617.72;4990197;28;20235;-67
2022/12/06 11:55:25;;;;;;;86.90;32.17;;;;;;;1.47;100.00;99620.00;4975007;28;20225;-65